< < Back
Terminal Aerodrome Forecast


Current Version              Previous Versions:   1  2  3  4  5  6  7  8  9  

Terminal Aerodrome Forecast

786
FTUS42 KGSP 250540
TAFGSP
TAF
KGSP 250540Z 2506/2606 26005KT P6SM OVC250
      TEMPO 2506/2507 4SM BR
     FM251800 03005KT P6SM BKN110
     FM260000 24003KT P6SM OVC110
     FM260300 33007KT P6SM OVC080=



Latest METAR

619
SAUS70 KWBC 252200 RRF
MTRGSP
METAR KGSP 252153Z 04003KT 10SM CLR 12/05 A3000 RMK AO2 SLP157
T01220050


USA.gov is the U.S. government's official web portal to all federal, state and local government web resources and services.